sensor_id;sensor_type;location;lat;lon;timestamp;pressure;altitude;pressure_sealevel;temperature;humidity
71043;BME280;58696;52.134;5.500;2024-02-26T00:01:39;99991.09;;;4.92;72.72
71043;BME280;58696;52.134;5.500;2024-02-26T00:04:06;99998.91;;;4.91;72.72
71043;BME280;58696;52.134;5.500;2024-02-26T00:06:35;100002.56;;;4.88;72.73
71043;BME280;58696;52.134;5.500;2024-02-26T00:09:02;100001.00;;;4.87;72.71
71043;BME280;58696;52.134;5.500;2024-02-26T00:11:32;100004.50;;;4.86;72.71
71043;BME280;58696;52.134;5.500;2024-02-26T00:14:01;100001.34;;;4.84;72.71
71043;BME280;58696;52.134;5.500;2024-02-26T00:16:30;100005.16;;;4.80;72.71
71043;BME280;58696;52.134;5.500;2024-02-26T00:18:56;100008.03;;;4.77;72.71
71043;BME280;58696;52.134;5.500;2024-02-26T00:21:26;100011.72;;;4.74;72.72
71043;BME280;58696;52.134;5.500;2024-02-26T00:23:53;100016.97;;;4.73;72.71
71043;BME280;58696;52.134;5.500;2024-02-26T00:26:24;100020.63;;;4.70;72.69
71043;BME280;58696;52.134;5.500;2024-02-26T00:28:51;100018.25;;;4.69;72.71
71043;BME280;58696;52.134;5.500;2024-02-26T00:31:17;100016.19;;;4.64;72.70
71043;BME280;58696;52.134;5.500;2024-02-26T00:33:44;100016.19;;;4.64;72.70
71043;BME280;58696;52.134;5.500;2024-02-26T00:36:10;100012.84;;;4.64;72.70
71043;BME280;58696;52.134;5.500;2024-02-26T00:38:37;100014.75;;;4.62;72.69
71043;BME280;58696;52.134;5.500;2024-02-26T00:41:04;100020.00;;;4.60;72.69
71043;BME280;58696;52.134;5.500;2024-02-26T00:43:33;100009.38;;;4.57;72.68
71043;BME280;58696;52.134;5.500;2024-02-26T00:45:59;100009.88;;;4.52;72.68
71043;BME280;58696;52.134;5.500;2024-02-26T00:48:26;100016.06;;;4.49;72.69
71043;BME280;58696;52.134;5.500;2024-02-26T00:50:53;100016.41;;;4.46;72.68
71043;BME280;58696;52.134;5.500;2024-02-26T00:53:22;100017.31;;;4.45;72.68
71043;BME280;58696;52.134;5.500;2024-02-26T00:55:48;100009.69;;;4.45;72.69
71043;BME280;58696;52.134;5.500;2024-02-26T00:58:15;100017.66;;;4.42;72.69
71043;BME280;58696;52.134;5.500;2024-02-26T01:00:45;100021.97;;;4.42;72.68
71043;BME280;58696;52.134;5.500;2024-02-26T01:03:14;100013.53;;;4.41;72.68
71043;BME280;58696;52.134;5.500;2024-02-26T01:05:41;100023.53;;;4.43;72.68
71043;BME280;58696;52.134;5.500;2024-02-26T01:08:10;100015.91;;;4.43;72.68
71043;BME280;58696;52.134;5.500;2024-02-26T01:10:41;100011.97;;;4.40;72.68
71043;BME280;58696;52.134;5.500;2024-02-26T01:13:08;100020.38;;;4.41;72.68
71043;BME280;58696;52.134;5.500;2024-02-26T01:15:36;100019.41;;;4.42;72.68
71043;BME280;58696;52.134;5.500;2024-02-26T01:18:03;100008.44;;;4.41;72.68
71043;BME280;58696;52.134;5.500;2024-02-26T01:20:32;100004.94;;;4.42;72.68
71043;BME280;58696;52.134;5.500;2024-02-26T01:23:01;100009.69;;;4.45;72.69
71043;BME280;58696;52.134;5.500;2024-02-26T01:25:30;100012.25;;;4.45;72.68
71043;BME280;58696;52.134;5.500;2024-02-26T01:27:56;100009.69;;;4.45;72.68
71043;BME280;58696;52.134;5.500;2024-02-26T01:30:25;100010.34;;;4.47;72.69
71043;BME280;58696;52.134;5.500;2024-02-26T01:32:52;100005.25;;;4.47;72.68
71043;BME280;58696;52.134;5.500;2024-02-26T01:35:21;100001.91;;;4.47;72.68
71043;BME280;58696;52.134;5.500;2024-02-26T01:37:48;100001.13;;;4.46;72.68
71043;BME280;58696;52.134;5.500;2024-02-26T01:40:15;99994.28;;;4.47;72.68
71043;BME280;58696;52.134;5.500;2024-02-26T01:42:46;100000.00;;;4.49;72.68
71043;BME280;58696;52.134;5.500;2024-02-26T01:45:16;99997.28;;;4.51;72.67
71043;BME280;58696;52.134;5.500;2024-02-26T01:47:51;100003.34;;;4.49;72.68
71043;BME280;58696;52.134;5.500;2024-02-26T01:50:19;100003.97;;;4.52;72.69
71043;BME280;58696;52.134;5.500;2024-02-26T01:52:49;99998.91;;;4.52;72.68
71043;BME280;58696;52.134;5.500;2024-02-26T01:55:18;100005.56;;;4.53;72.69
71043;BME280;58696;52.134;5.500;2024-02-26T01:57:48;100001.09;;;4.55;72.69
71043;BME280;58696;52.134;5.500;2024-02-26T02:00:16;100005.88;;;4.58;72.69
71043;BME280;58696;52.134;5.500;2024-02-26T02:02:44;100007.44;;;4.59;72.69
71043;BME280;58696;52.134;5.500;2024-02-26T02:05:15;100012.19;;;4.62;72.69
71043;BME280;58696;52.134;5.500;2024-02-26T02:07:43;100017.16;;;4.63;72.70
71043;BME280;58696;52.134;5.500;2024-02-26T02:10:15;100016.97;;;4.65;72.70
71043;BME280;58696;52.134;5.500;2024-02-26T02:12:52;100019.34;;;4.66;72.69
71043;BME280;58696;52.134;5.500;2024-02-26T02:15:18;100012.69;;;4.65;72.69
71043;BME280;58696;52.134;5.500;2024-02-26T02:17:49;100020.94;;;4.67;72.69
71043;BME280;58696;52.134;5.500;2024-02-26T02:20:16;100026.84;;;4.68;72.70
71043;BME280;58696;52.134;5.500;2024-02-26T02:22:46;100022.53;;;4.68;72.69
71043;BME280;58696;52.134;5.500;2024-02-26T02:25:17;100033.66;;;4.67;72.70
71043;BME280;58696;52.134;5.500;2024-02-26T02:27:46;100028.25;;;4.70;72.70
71043;BME280;58696;52.134;5.500;2024-02-26T02:30:17;100041.78;;;4.71;72.70
71043;BME280;58696;52.134;5.500;2024-02-26T02:32:49;100044.16;;;4.72;72.69
71043;BME280;58696;52.134;5.500;2024-02-26T02:35:18;100039.88;;;4.73;72.70
71043;BME280;58696;52.134;5.500;2024-02-26T02:37:45;100042.25;;;4.74;72.71
71043;BME280;58696;52.134;5.500;2024-02-26T02:40:11;100048.75;;;4.77;72.72
71043;BME280;58696;52.134;5.500;2024-02-26T02:42:40;100049.41;;;4.79;72.71
71043;BME280;58696;52.134;5.500;2024-02-26T02:45:09;100060.19;;;4.81;72.71
71043;BME280;58696;52.134;5.500;2024-02-26T02:47:41;100057.81;;;4.80;72.71
71043;BME280;58696;52.134;5.500;2024-02-26T02:50:10;100064.50;;;4.81;72.71
71043;BME280;58696;52.134;5.500;2024-02-26T02:52:39;100060.81;;;4.83;72.72
71043;BME280;58696;52.134;5.500;2024-02-26T02:55:06;100064.81;;;4.86;72.71
71043;BME280;58696;52.134;5.500;2024-02-26T02:57:33;100069.25;;;4.84;72.71
71043;BME280;58696;52.134;5.500;2024-02-26T02:59:59;100068.47;;;4.83;72.71
71043;BME280;58696;52.134;5.500;2024-02-26T03:02:28;100072.63;;;4.84;72.71
71043;BME280;58696;52.134;5.500;2024-02-26T03:04:58;100072.94;;;4.81;72.72
71043;BME280;58696;52.134;5.500;2024-02-26T03:07:24;100067.03;;;4.81;72.70
71043;BME280;58696;52.134;5.500;2024-02-26T03:09:53;100073.88;;;4.80;72.71
71043;BME280;58696;52.134;5.500;2024-02-26T03:12:20;100084.38;;;4.77;72.71
71043;BME280;58696;52.134;5.500;2024-02-26T03:14:46;100085.34;;;4.76;72.71
71043;BME280;58696;52.134;5.500;2024-02-26T03:17:13;100084.72;;;4.74;72.70
71043;BME280;58696;52.134;5.500;2024-02-26T03:19:40;100097.75;;;4.71;72.70
71043;BME280;58696;52.134;5.500;2024-02-26T03:22:06;100102.06;;;4.70;72.70
71043;BME280;58696;52.134;5.500;2024-02-26T03:24:35;100104.59;;;4.70;72.70
71043;BME280;58696;52.134;5.500;2024-02-26T03:27:04;100108.28;;;4.68;72.69
71043;BME280;58696;52.134;5.500;2024-02-26T03:29:37;100103.97;;;4.68;72.70
71043;BME280;58696;52.134;5.500;2024-02-26T03:32:04;100113.50;;;4.66;72.70
71043;BME280;58696;52.134;5.500;2024-02-26T03:34:32;100107.47;;;4.67;72.69
71043;BME280;58696;52.134;5.500;2024-02-26T03:37:01;100107.81;;;4.64;72.70
71043;BME280;58696;52.134;5.500;2024-02-26T03:39:27;100113.06;;;4.63;72.70
71043;BME280;58696;52.134;5.500;2024-02-26T03:41:57;100112.41;;;4.61;72.69
71043;BME280;58696;52.134;5.500;2024-02-26T03:44:23;100110.81;;;4.60;72.69
71043;BME280;58696;52.134;5.500;2024-02-26T03:46:50;100116.06;;;4.58;72.69
71043;BME280;58696;52.134;5.500;2024-02-26T03:49:16;100111.78;;;4.59;72.69
71043;BME280;58696;52.134;5.500;2024-02-26T03:51:43;100117.84;;;4.58;72.67
71043;BME280;58696;52.134;5.500;2024-02-26T03:54:10;100122.91;;;4.58;72.69
71043;BME280;58696;52.134;5.500;2024-02-26T03:56:37;100113.72;;;4.57;72.68
71043;BME280;58696;52.134;5.500;2024-02-26T03:59:06;100114.63;;;4.56;72.68
71043;BME280;58696;52.134;5.500;2024-02-26T04:01:35;100119.72;;;4.56;72.70
71043;BME280;58696;52.134;5.500;2024-02-26T04:04:04;100120.69;;;4.55;72.68
71043;BME280;58696;52.134;5.500;2024-02-26T04:06:35;100121.47;;;4.55;72.68
71043;BME280;58696;52.134;5.500;2024-02-26T04:09:04;100115.59;;;4.55;72.69
71043;BME280;58696;52.134;5.500;2024-02-26T04:11:33;100123.41;;;4.53;72.68
71043;BME280;58696;52.134;5.500;2024-02-26T04:14:05;100126.56;;;4.55;72.69
71043;BME280;58696;52.134;5.500;2024-02-26T04:16:36;100129.91;;;4.56;72.70
71043;BME280;58696;52.134;5.500;2024-02-26T04:19:04;100135.78;;;4.56;72.70
71043;BME280;58696;52.134;5.500;2024-02-26T04:21:35;100133.25;;;4.56;72.70
71043;BME280;58696;52.134;5.500;2024-02-26T04:24:01;100134.06;;;4.57;72.70
71043;BME280;58696;52.134;5.500;2024-02-26T04:26:30;100130.38;;;4.59;72.70
71043;BME280;58696;52.134;5.500;2024-02-26T04:29:01;100143.13;;;4.59;72.69
71043;BME280;58696;52.134;5.500;2024-02-26T04:31:28;100142.94;;;4.61;72.69
71043;BME280;58696;52.134;5.500;2024-02-26T04:33:55;100137.22;;;4.59;72.69
71043;BME280;58696;52.134;5.500;2024-02-26T04:36:21;100149.00;;;4.60;72.69
71043;BME280;58696;52.134;5.500;2024-02-26T04:38:48;100152.16;;;4.62;72.69
71043;BME280;58696;52.134;5.500;2024-02-26T04:41:17;100149.47;;;4.63;72.70
71043;BME280;58696;52.134;5.500;2024-02-26T04:43:46;100156.16;;;4.64;72.70
71043;BME280;58696;52.134;5.500;2024-02-26T04:46:16;100151.84;;;4.65;72.69
71043;BME280;58696;52.134;5.500;2024-02-26T04:48:42;100146.59;;;4.66;72.70
71043;BME280;58696;52.134;5.500;2024-02-26T04:51:15;100157.44;;;4.68;72.69
71043;BME280;58696;52.134;5.500;2024-02-26T04:53:47;100160.78;;;4.69;72.71
71043;BME280;58696;52.134;5.500;2024-02-26T04:56:16;100164.91;;;4.70;72.70
71043;BME280;58696;52.134;5.500;2024-02-26T04:58:42;100152.97;;;4.70;72.69
71043;BME280;58696;52.134;5.500;2024-02-26T05:01:10;100158.69;;;4.72;72.69
71043;BME280;58696;52.134;5.500;2024-02-26T05:03:43;100157.09;;;4.71;72.70
71043;BME280;58696;52.134;5.500;2024-02-26T05:06:10;100163.94;;;4.71;72.70
71043;BME280;58696;52.134;5.500;2024-02-26T05:08:39;100167.44;;;4.70;72.70
71043;BME280;58696;52.134;5.500;2024-02-26T05:11:08;100165.69;;;4.70;72.70
71043;BME280;58696;52.134;5.500;2024-02-26T05:13:35;100171.56;;;4.71;72.70
71043;BME280;58696;52.134;5.500;2024-02-26T05:16:04;100172.38;;;4.71;72.70
71043;BME280;58696;52.134;5.500;2024-02-26T05:18:31;100166.47;;;4.71;72.70
71043;BME280;58696;52.134;5.500;2024-02-26T05:21:00;100182.72;;;4.70;72.70
71043;BME280;58696;52.134;5.500;2024-02-26T05:23:26;100172.69;;;4.68;72.69
71043;BME280;58696;52.134;5.500;2024-02-26T05:25:53;100167.59;;;4.68;72.69
71043;BME280;58696;52.134;5.500;2024-02-26T05:28:19;100174.59;;;4.66;72.69
71043;BME280;58696;52.134;5.500;2024-02-26T05:30:47;100173.00;;;4.65;72.70
71043;BME280;58696;52.134;5.500;2024-02-26T05:33:16;100179.84;;;4.65;72.70
71043;BME280;58696;52.134;5.500;2024-02-26T05:35:47;100178.09;;;4.65;72.70
71043;BME280;58696;52.134;5.500;2024-02-26T05:38:13;100188.44;;;4.64;72.70
71043;BME280;58696;52.134;5.500;2024-02-26T05:40:42;100183.34;;;4.64;72.69
71043;BME280;58696;52.134;5.500;2024-02-26T05:43:12;100180.81;;;4.64;72.69
71043;BME280;58696;52.134;5.500;2024-02-26T05:45:44;100183.34;;;4.64;72.69
71043;BME280;58696;52.134;5.500;2024-02-26T05:48:10;100200.22;;;4.65;72.70
71043;BME280;58696;52.134;5.500;2024-02-26T05:50:40;100201.78;;;4.66;72.70
71043;BME280;58696;52.134;5.500;2024-02-26T05:53:09;100200.22;;;4.65;72.70
71043;BME280;58696;52.134;5.500;2024-02-26T05:55:39;100205.28;;;4.65;72.71
71043;BME280;58696;52.134;5.500;2024-02-26T05:58:05;100201.97;;;4.64;72.70
71043;BME280;58696;52.134;5.500;2024-02-26T06:00:34;100216.59;;;4.62;72.70
71043;BME280;58696;52.134;5.500;2024-02-26T06:03:01;100217.41;;;4.63;72.70
71043;BME280;58696;52.134;5.500;2024-02-26T06:05:28;100218.19;;;4.63;72.69
71043;BME280;58696;52.134;5.500;2024-02-26T06:07:55;100214.06;;;4.62;72.70
71043;BME280;58696;52.134;5.500;2024-02-26T06:10:21;100220.72;;;4.63;72.69
71043;BME280;58696;52.134;5.500;2024-02-26T06:12:48;100223.91;;;4.65;72.69
71043;BME280;58696;52.134;5.500;2024-02-26T06:15:14;100213.91;;;4.64;72.70
71043;BME280;58696;52.134;5.500;2024-02-26T06:17:44;100222.31;;;4.64;72.70
71043;BME280;58696;52.134;5.500;2024-02-26T06:20:13;100229.00;;;4.65;72.70
71043;BME280;58696;52.134;5.500;2024-02-26T06:22:41;100239.19;;;4.65;72.70
71043;BME280;58696;52.134;5.500;2024-02-26T06:25:10;100232.16;;;4.67;72.70
71043;BME280;58696;52.134;5.500;2024-02-26T06:27:39;100230.44;;;4.68;72.70
71043;BME280;58696;52.134;5.500;2024-02-26T06:30:06;100228.69;;;4.68;72.70
71043;BME280;58696;52.134;5.500;2024-02-26T06:32:33;100233.00;;;4.68;72.70
71043;BME280;58696;52.134;5.500;2024-02-26T06:35:02;100228.69;;;4.68;72.70
71043;BME280;58696;52.134;5.500;2024-02-26T06:37:34;100243.16;;;4.68;72.70
71043;BME280;58696;52.134;5.500;2024-02-26T06:40:01;100243.16;;;4.68;72.69
71043;BME280;58696;52.134;5.500;2024-02-26T06:42:32;100245.72;;;4.68;72.69
71043;BME280;58696;52.134;5.500;2024-02-26T06:45:03;100250.81;;;4.68;72.70
71043;BME280;58696;52.134;5.500;2024-02-26T06:47:38;100254.78;;;4.70;72.70
71043;BME280;58696;52.134;5.500;2024-02-26T06:50:08;100261.63;;;4.70;72.69
71043;BME280;58696;52.134;5.500;2024-02-26T06:52:34;100258.09;;;4.71;72.70
71043;BME280;58696;52.134;5.500;2024-02-26T06:55:03;100266.22;;;4.74;72.69
71043;BME280;58696;52.134;5.500;2024-02-26T06:57:35;100266.06;;;4.76;72.71
71043;BME280;58696;52.134;5.500;2024-02-26T07:00:01;100272.13;;;4.75;72.71
71043;BME280;58696;52.134;5.500;2024-02-26T07:02:33;100275.28;;;4.77;72.72
71043;BME280;58696;52.134;5.500;2024-02-26T07:05:01;100283.59;;;4.79;72.71
71043;BME280;58696;52.134;5.500;2024-02-26T07:07:29;100275.94;;;4.79;72.71
71043;BME280;58696;52.134;5.500;2024-02-26T07:09:57;100280.53;;;4.84;72.71
71043;BME280;58696;52.134;5.500;2024-02-26T07:12:24;100289.00;;;4.84;72.71
71043;BME280;58696;52.134;5.500;2024-02-26T07:14:53;100289.63;;;4.86;72.71
71043;BME280;58696;52.134;5.500;2024-02-26T07:17:20;100296.31;;;4.87;72.72
71043;BME280;58696;52.134;5.500;2024-02-26T07:19:48;100296.97;;;4.89;72.72
71043;BME280;58696;52.134;5.500;2024-02-26T07:22:15;100289.31;;;4.89;72.72
71043;BME280;58696;52.134;5.500;2024-02-26T07:24:44;100302.69;;;4.91;72.73
71043;BME280;58696;52.134;5.500;2024-02-26T07:27:10;100303.47;;;4.92;72.72
71043;BME280;58696;52.134;5.500;2024-02-26T07:29:39;100316.03;;;4.93;72.73
71043;BME280;58696;52.134;5.500;2024-02-26T07:32:08;100320.34;;;4.93;72.73
71043;BME280;58696;52.134;5.500;2024-02-26T07:34:38;100326.22;;;4.93;72.73
71043;BME280;58696;52.134;5.500;2024-02-26T07:37:09;100319.38;;;4.94;72.72
71043;BME280;58696;52.134;5.500;2024-02-26T07:39:36;100325.44;;;4.93;72.73
71043;BME280;58696;52.134;5.500;2024-02-26T07:42:03;100322.88;;;4.93;72.73
71043;BME280;58696;52.134;5.500;2024-02-26T07:44:33;100318.75;;;4.92;72.72
71043;BME280;58696;52.134;5.500;2024-02-26T07:47:00;100324.81;;;4.91;72.73
71043;BME280;58696;52.134;5.500;2024-02-26T07:49:29;100323.84;;;4.92;72.72
71043;BME280;58696;52.134;5.500;2024-02-26T07:51:55;100324.00;;;4.90;72.73
71043;BME280;58696;52.134;5.500;2024-02-26T07:54:24;100329.72;;;4.92;72.72
71043;BME280;58696;52.134;5.500;2024-02-26T07:56:51;100329.72;;;4.92;72.72
71043;BME280;58696;52.134;5.500;2024-02-26T07:59:18;100334.81;;;4.92;72.72
71043;BME280;58696;52.134;5.500;2024-02-26T08:01:49;100340.72;;;4.93;72.74
71043;BME280;58696;52.134;5.500;2024-02-26T08:04:24;100346.47;;;4.95;72.74
71043;BME280;58696;52.134;5.500;2024-02-26T08:06:55;100348.03;;;4.96;72.73
71043;BME280;58696;52.134;5.500;2024-02-26T08:09:22;100355.53;;;4.97;72.72
71043;BME280;58696;52.134;5.500;2024-02-26T08:11:48;100355.06;;;5.02;72.73
71043;BME280;58696;52.134;5.500;2024-02-26T08:14:17;100364.44;;;5.01;72.74
71043;BME280;58696;52.134;5.500;2024-02-26T08:16:47;100375.44;;;5.02;72.74
71043;BME280;58696;52.134;5.500;2024-02-26T08:19:16;100362.53;;;5.04;72.73
71043;BME280;58696;52.134;5.500;2024-02-26T08:21:44;100366.66;;;5.05;72.72
71043;BME280;58696;52.134;5.500;2024-02-26T08:24:16;100370.81;;;5.06;72.74
71043;BME280;58696;52.134;5.500;2024-02-26T08:26:45;100366.81;;;5.03;72.73
71043;BME280;58696;52.134;5.500;2024-02-26T08:29:15;100373.50;;;5.04;72.73
71043;BME280;58696;52.134;5.500;2024-02-26T08:31:42;100368.59;;;5.03;72.74
71043;BME280;58696;52.134;5.500;2024-02-26T08:34:09;100369.38;;;5.03;72.72
71043;BME280;58696;52.134;5.500;2024-02-26T08:36:38;100381.31;;;5.03;72.74
71043;BME280;58696;52.134;5.500;2024-02-26T08:39:07;100377.00;;;5.03;72.73
71043;BME280;58696;52.134;5.500;2024-02-26T08:41:35;100385.63;;;5.02;72.73
71043;BME280;58696;52.134;5.500;2024-02-26T08:44:02;100384.03;;;5.01;72.74
71043;BME280;58696;52.134;5.500;2024-02-26T08:46:35;100391.66;;;5.01;72.73
71043;BME280;58696;52.134;5.500;2024-02-26T08:49:05;100405.03;;;5.03;72.72
71043;BME280;58696;52.134;5.500;2024-02-26T08:51:34;100394.03;;;5.03;72.73
71043;BME280;58696;52.134;5.500;2024-02-26T08:54:01;100407.75;;;5.01;72.73
71043;BME280;58696;52.134;5.500;2024-02-26T08:56:27;100406.00;;;5.02;72.72
71043;BME280;58696;52.134;5.500;2024-02-26T08:58:54;100410.91;;;5.04;72.73
71043;BME280;58696;52.134;5.500;2024-02-26T09:01:23;100416.97;;;5.03;72.73
71043;BME280;58696;52.134;5.500;2024-02-26T09:03:52;100415.50;;;5.00;72.73
71043;BME280;58696;52.134;5.500;2024-02-26T09:06:19;100423.31;;;4.98;72.72
71043;BME280;58696;52.134;5.500;2024-02-26T09:08:48;100419.69;;;5.01;72.73
71043;BME280;58696;52.134;5.500;2024-02-26T09:11:15;100423.03;;;5.01;72.72
71043;BME280;58696;52.134;5.500;2024-02-26T09:13:42;100422.06;;;5.03;72.72
71043;BME280;58696;52.134;5.500;2024-02-26T09:16:11;100427.31;;;5.01;72.74
71043;BME280;58696;52.134;5.500;2024-02-26T09:18:40;100426.53;;;5.00;72.75
71043;BME280;58696;52.134;5.500;2024-02-26T09:21:07;100427.94;;;5.03;72.74
71043;BME280;58696;52.134;5.500;2024-02-26T09:23:41;100425.41;;;5.03;72.74
71043;BME280;58696;52.134;5.500;2024-02-26T09:26:10;100435.28;;;5.06;72.74
71043;BME280;58696;52.134;5.500;2024-02-26T09:28:36;100435.59;;;5.03;72.72
71043;BME280;58696;52.134;5.500;2024-02-26T09:31:04;100451.50;;;5.05;72.73
71043;BME280;58696;52.134;5.500;2024-02-26T09:33:32;100444.34;;;5.09;72.74
71043;BME280;58696;52.134;5.500;2024-02-26T09:35:59;100453.75;;;5.08;72.74
71043;BME280;58696;52.134;5.500;2024-02-26T09:38:29;100454.53;;;5.09;72.74
71043;BME280;58696;52.134;5.500;2024-02-26T09:41:04;100458.53;;;5.11;72.74
71043;BME280;58696;52.134;5.500;2024-02-26T09:43:38;100462.03;;;5.10;72.75
71043;BME280;58696;52.134;5.500;2024-02-26T09:46:06;100466.19;;;5.11;72.74
71043;BME280;58696;52.134;5.500;2024-02-26T09:48:35;100467.78;;;5.12;72.75
71043;BME280;58696;52.134;5.500;2024-02-26T09:51:04;100462.22;;;5.17;72.75
71043;BME280;58696;52.134;5.500;2024-02-26T09:53:34;100476.38;;;5.19;72.75
71043;BME280;58696;52.134;5.500;2024-02-26T09:56:06;100466.19;;;5.19;72.75
71043;BME280;58696;52.134;5.500;2024-02-26T09:58:36;100473.38;;;5.24;72.74
71043;BME280;58696;52.134;5.500;2024-02-26T10:01:07;100474.97;;;5.25;72.77
71043;BME280;58696;52.134;5.500;2024-02-26T10:03:41;100474.97;;;5.25;72.76
71043;BME280;58696;52.134;5.500;2024-02-26T10:06:08;100483.41;;;5.25;72.76
71043;BME280;58696;52.134;5.500;2024-02-26T10:08:37;100482.94;;;5.22;72.75
71043;BME280;58696;52.134;5.500;2024-02-26T10:11:06;100487.53;;;5.26;72.77
71043;BME280;58696;52.134;5.500;2024-02-26T10:13:37;100498.69;;;5.25;72.76
71043;BME280;58696;52.134;5.500;2024-02-26T10:16:07;100505.69;;;5.23;72.77
71043;BME280;58696;52.134;5.500;2024-02-26T10:18:50;100501.72;;;5.29;72.75
71043;BME280;58696;52.134;5.500;2024-02-26T10:21:26;100507.78;;;5.28;72.76
71043;BME280;58696;52.134;5.500;2024-02-26T10:23:53;100515.44;;;5.28;72.76
71043;BME280;58696;52.134;5.500;2024-02-26T10:26:21;100517.47;;;5.33;72.76
71043;BME280;58696;52.134;5.500;2024-02-26T10:28:48;100519.41;;;5.31;72.76
71043;BME280;58696;52.134;5.500;2024-02-26T10:31:21;100530.09;;;5.34;72.75
71043;BME280;58696;52.134;5.500;2024-02-26T10:33:48;100525.47;;;5.38;72.77
71043;BME280;58696;52.134;5.500;2024-02-26T10:36:16;100518.63;;;5.38;72.78
71043;BME280;58696;52.134;5.500;2024-02-26T10:38:42;100535.03;;;5.36;72.76
71043;BME280;58696;52.134;5.500;2024-02-26T10:41:13;100545.38;;;5.42;72.78
71043;BME280;58696;52.134;5.500;2024-02-26T10:43:42;100536.78;;;5.43;72.78
71043;BME280;58696;52.134;5.500;2024-02-26T10:46:09;100548.09;;;5.49;72.78
71043;BME280;58696;52.134;5.500;2024-02-26T10:48:38;100554.03;;;5.49;72.78
71043;BME280;58696;52.134;5.500;2024-02-26T10:51:07;100551.16;;;5.52;72.79
71043;BME280;58696;52.134;5.500;2024-02-26T10:53:38;100556.25;;;5.52;72.78
71043;BME280;58696;52.134;5.500;2024-02-26T10:56:08;100557.38;;;5.58;72.79
71043;BME280;58696;52.134;5.500;2024-02-26T10:58:39;100568.03;;;5.53;72.78
71043;BME280;58696;52.134;5.500;2024-02-26T11:01:11;100567.72;;;5.57;72.79
71043;BME280;58696;52.134;5.500;2024-02-26T11:03:38;100570.13;;;5.58;72.79
71043;BME280;58696;52.134;5.500;2024-02-26T11:06:08;100584.31;;;5.61;72.79
71043;BME280;58696;52.134;5.500;2024-02-26T11:08:37;100579.06;;;5.62;72.79
71043;BME280;58696;52.134;5.500;2024-02-26T11:11:04;100584.66;;;5.66;72.78
71043;BME280;58696;52.134;5.500;2024-02-26T11:13:35;100586.53;;;5.64;72.79
71043;BME280;58696;52.134;5.500;2024-02-26T11:16:08;100588.13;;;5.65;72.79
71043;BME280;58696;52.134;5.500;2024-02-26T11:18:36;100580.47;;;5.65;72.79
71043;BME280;58696;52.134;5.500;2024-02-26T11:21:05;100590.84;;;5.63;72.79
71043;BME280;58696;52.134;5.500;2024-02-26T11:23:34;100593.88;;;5.67;72.80
71043;BME280;58696;52.134;5.500;2024-02-26T11:26:04;100599.78;;;5.67;72.79
71043;BME280;58696;52.134;5.500;2024-02-26T11:28:35;100602.97;;;5.61;72.79
71043;BME280;58696;52.134;5.500;2024-02-26T11:31:05;100607.25;;;5.61;72.79
71043;BME280;58696;52.134;5.500;2024-02-26T11:33:37;100608.38;;;5.66;72.79
71043;BME280;58696;52.134;5.500;2024-02-26T11:36:11;100614.91;;;5.61;72.80
71043;BME280;58696;52.134;5.500;2024-02-26T11:38:40;100616.34;;;5.63;72.79
71043;BME280;58696;52.134;5.500;2024-02-26T11:41:07;100618.25;;;5.61;72.79
71043;BME280;58696;52.134;5.500;2024-02-26T11:43:49;100620.94;;;5.60;72.77
71043;BME280;58696;52.134;5.500;2024-02-26T11:46:30;100614.13;;;5.60;72.77
71043;BME280;58696;52.134;5.500;2024-02-26T11:54:51;100636.59;;;5.73;72.81
71043;BME280;58696;52.134;5.500;2024-02-26T11:57:26;100632.47;;;5.72;72.80
71043;BME280;58696;52.134;5.500;2024-02-26T12:00:13;100642.50;;;5.73;72.81
71043;BME280;58696;52.134;5.500;2024-02-26T12:02:50;100639.94;;;5.73;72.81
71043;BME280;58696;52.134;5.500;2024-02-26T12:05:24;100639.00;;;5.74;72.81
71043;BME280;58696;52.134;5.500;2024-02-26T12:08:01;100646.97;;;5.71;72.80
71043;BME280;58696;52.134;5.500;2024-02-26T12:10:36;100646.81;;;5.73;72.82
71043;BME280;58696;52.134;5.500;2024-02-26T12:13:07;100656.69;;;5.76;72.80
71043;BME280;58696;52.134;5.500;2024-02-26T12:15:42;100660.34;;;5.73;72.80
71043;BME280;58696;52.134;5.500;2024-02-26T12:18:16;100661.31;;;5.72;72.79
71043;BME280;58696;52.134;5.500;2024-02-26T12:20:43;100664.66;;;5.73;72.79
71043;BME280;58696;52.134;5.500;2024-02-26T12:23:16;100663.69;;;5.74;72.81
71043;BME280;58696;52.134;5.500;2024-02-26T12:25:46;100672.13;;;5.74;72.80
71043;BME280;58696;52.134;5.500;2024-02-26T12:28:15;100668.50;;;5.77;72.81
71043;BME280;58696;52.134;5.500;2024-02-26T12:30:44;100673.44;;;5.78;72.80
71043;BME280;58696;52.134;5.500;2024-02-26T12:33:13;100677.59;;;5.79;72.81
71043;BME280;58696;52.134;5.500;2024-02-26T12:35:42;100669.13;;;5.79;72.81
71043;BME280;58696;52.134;5.500;2024-02-26T12:38:10;100685.56;;;5.85;72.80
71043;BME280;58696;52.134;5.500;2024-02-26T12:40:37;100683.97;;;5.84;72.80
71043;BME280;58696;52.134;5.500;2024-02-26T12:43:03;100679.34;;;5.79;72.81
71043;BME280;58696;52.134;5.500;2024-02-26T12:45:30;100678.38;;;5.80;72.79
71043;BME280;58696;52.134;5.500;2024-02-26T12:47:59;100685.38;;;5.78;72.81
71043;BME280;58696;52.134;5.500;2024-02-26T12:50:25;100684.78;;;5.84;72.81
71043;BME280;58696;52.134;5.500;2024-02-26T12:52:54;100691.63;;;5.84;72.80
71043;BME280;58696;52.134;5.500;2024-02-26T12:55:21;100680.47;;;5.85;72.80
71043;BME280;58696;52.134;5.500;2024-02-26T12:57:48;100694.69;;;5.87;72.81
71043;BME280;58696;52.134;5.500;2024-02-26T13:00:20;100694.69;;;5.87;72.81
71043;BME280;58696;52.134;5.500;2024-02-26T13:02:51;100697.22;;;5.87;72.81
71043;BME280;58696;52.134;5.500;2024-02-26T13:05:19;100701.38;;;5.88;72.81
71043;BME280;58696;52.134;5.500;2024-02-26T13:07:49;100704.22;;;5.85;72.82
71043;BME280;58696;52.134;5.500;2024-02-26T13:10:18;100711.22;;;5.83;72.81
71043;BME280;58696;52.134;5.500;2024-02-26T13:12:49;100711.88;;;5.85;72.80
71043;BME280;58696;52.134;5.500;2024-02-26T13:15:22;100711.56;;;5.88;72.81